Capitol Logistics 75




PANC
Ted Stevens Anchorage International Airport
Anchorage, Alaska
KCVG
Cincinnati/Northern Kentucky International Airport
Covington, Kentucky

Route Details

Aircraft Information
Primary: Boeing 747-400BCF
Backup: Boeing 767-300BDSF
Route Data
Distance: 2700nm
Duration: 5h 37m
Recm'd Route: TED YESKA NCA13 YXY YPE WAINN VLN 4900N/10000W GFK GEP J36 ODI J30 JOT CEGRM5
Origin Wx: PANC 180153Z 30003KT 10SM SCT200 12/M03 A3032 RMK AO2 SLP270 T01171033 VISNO N $
Dest. Wx: KCVG 180152Z 21003KT 10SM CLR 07/04 A2993 RMK AO2 SLP133 T00720039
Notes: